Terminal Aerodrome Forecast
Issued by NWS

Home | Current Version | Previous Version | Text Only | Print | Product List | Glossary On
Versions: 1 2 3 4 5 6 7 8 9 10 11 12 13 14
948
FTUS45 KRIW 151723
TAFCPR
TAF
KCPR 151723Z 1518/1618 22016G26KT P6SM SKC
     FM160100 23010KT P6SM SKC
     FM161100 23016G26KT P6SM SKC=

USA.gov is the U.S. government's official web portal to all federal, state and local government web resources and services.